createdAt,value
2019-01-19T00:01:45.537Z,25.57
2019-01-19T00:04:57.595Z,23.47
2019-01-19T00:07:34.467Z,21.63
2019-01-19T00:11:16.261Z,22.20
2019-01-19T00:14:13.868Z,20.50
2019-01-19T00:17:19.197Z,22.47
2019-01-19T00:20:34.633Z,20.77
2019-01-19T00:23:48.115Z,16.87
2019-01-19T00:27:03.595Z,14.33
2019-01-19T00:30:08.992Z,15.83
2019-01-19T00:33:03.320Z,19.00
2019-01-19T00:36:18.810Z,18.10
2019-01-19T00:39:11.043Z,17.47
2019-01-19T00:42:09.827Z,16.13
2019-01-19T00:45:32.456Z,15.43
2019-01-19T00:48:29.454Z,21.03
2019-01-19T00:51:26.321Z,20.10
2019-01-19T00:54:01.527Z,16.27
2019-01-19T00:57:02.466Z,16.37
2019-01-19T00:59:36.772Z,27.17
2019-01-19T01:02:45.146Z,22.13
2019-01-19T01:05:25.407Z,17.23
2019-01-19T01:08:56.505Z,25.50
2019-01-19T01:11:49.452Z,19.33
2019-01-19T01:15:02.247Z,24.87
2019-01-19T01:17:52.123Z,23.67
2019-01-19T01:20:59.557Z,22.30
2019-01-19T01:24:14.314Z,21.27
2019-01-19T01:27:26.953Z,19.50
2019-01-19T01:30:43.777Z,16.70
2019-01-19T01:33:37.689Z,14.87
2019-01-19T01:36:30.060Z,14.37
2019-01-19T01:39:29.766Z,15.27
2019-01-19T01:42:13.861Z,19.23
2019-01-19T01:45:11.602Z,17.60
2019-01-19T01:48:27.852Z,18.13
2019-01-19T01:51:31.198Z,21.90
2019-01-19T01:54:48.518Z,23.73
2019-01-19T01:57:43.037Z,23.50
2019-01-19T02:00:52.278Z,23.33
2019-01-19T02:03:35.650Z,23.67
2019-01-19T02:06:50.826Z,21.47
2019-01-19T02:10:10.158Z,21.80
2019-01-19T02:12:48.542Z,19.73
2019-01-19T02:15:43.878Z,20.53
2019-01-19T02:18:57.211Z,21.00
2019-01-19T02:21:54.337Z,19.40
2019-01-19T02:25:16.244Z,22.47
2019-01-19T02:28:20.813Z,24.03
2019-01-19T02:31:28.319Z,21.20
2019-01-19T02:34:22.561Z,17.90
2019-01-19T02:37:18.590Z,19.70
2019-01-19T02:40:30.192Z,29.73
2019-01-19T02:43:43.527Z,23.17
2019-01-19T02:46:44.464Z,24.90
2019-01-19T02:50:19.815Z,19.07
2019-01-19T02:53:10.871Z,18.00
2019-01-19T02:56:04.196Z,18.30
2019-01-19T02:59:17.763Z,16.13
2019-01-19T03:02:23.223Z,16.23
2019-01-19T03:05:42.801Z,14.60
2019-01-19T03:09:11.474Z,15.50
2019-01-19T03:12:26.143Z,16.53
2019-01-19T03:15:10.943Z,16.03
2019-01-19T03:17:54.403Z,16.63
2019-01-19T03:20:36.570Z,17.53
2019-01-19T03:23:47.233Z,16.90
2019-01-19T03:26:33.284Z,16.13
2019-01-19T03:29:43.949Z,15.67
2019-01-19T03:32:52.943Z,14.97
2019-01-19T03:35:32.547Z,14.27
2019-01-19T03:38:51.924Z,13.07
2019-01-19T03:41:47.290Z,11.80
2019-01-19T03:44:53.082Z,9.73
2019-01-19T03:47:45.139Z,9.67
2019-01-19T03:50:45.848Z,9.20
2019-01-19T03:53:41.081Z,8.50
2019-01-19T03:56:46.070Z,8.43
2019-01-19T03:59:59.786Z,8.20
2019-01-19T04:02:59.529Z,8.10
2019-01-19T04:05:53.460Z,7.07
2019-01-19T04:09:05.913Z,11.07
2019-01-19T04:12:07.977Z,12.77
2019-01-19T04:15:18.365Z,11.90
2019-01-19T04:18:01.977Z,8.23
2019-01-19T04:21:00.054Z,6.93
2019-01-19T04:23:29.666Z,12.37
2019-01-19T04:26:08.796Z,12.63
2019-01-19T04:28:38.598Z,13.27
2019-01-19T04:31:08.240Z,13.23
2019-01-19T04:33:37.820Z,14.00
2019-01-19T04:36:08.758Z,13.03
2019-01-19T04:38:39.550Z,12.97
2019-01-19T04:41:09.078Z,13.27
2019-01-19T04:43:38.727Z,12.87
2019-01-19T04:46:08.309Z,12.87
2019-01-19T04:48:38.234Z,12.93
2019-01-19T04:51:07.904Z,12.33
2019-01-19T04:53:37.466Z,13.17
2019-01-19T04:56:07.088Z,14.10
2019-01-19T04:58:36.670Z,13.17
2019-01-19T05:01:06.261Z,13.40
2019-01-19T05:03:35.884Z,11.23
2019-01-19T05:06:12.180Z,11.37
2019-01-19T05:08:36.731Z,10.60
2019-01-19T05:11:06.301Z,10.17
2019-01-19T05:13:35.897Z,10.63
2019-01-19T05:16:05.554Z,11.70
2019-01-19T05:18:35.119Z,10.77
2019-01-19T05:21:04.981Z,11.70
2019-01-19T05:23:34.903Z,12.87
2019-01-19T05:26:04.393Z,14.97
2019-01-19T05:28:34.006Z,11.77
2019-01-19T05:31:03.582Z,10.47
2019-01-19T05:33:33.222Z,10.00
2019-01-19T05:36:02.763Z,10.47
2019-01-19T05:38:32.346Z,9.83
2019-01-19T05:41:01.899Z,9.97
2019-01-19T05:43:31.530Z,10.60
2019-01-19T05:46:01.190Z,11.50
2019-01-19T05:48:30.702Z,10.57
2019-01-19T05:51:00.294Z,10.27
2019-01-19T05:53:29.876Z,10.63
2019-01-19T05:55:59.381Z,13.13
2019-01-19T05:58:28.939Z,13.10
2019-01-19T06:00:58.553Z,11.53
2019-01-19T06:03:28.346Z,10.83
2019-01-19T06:06:03.661Z,11.87
2019-01-19T06:08:42.177Z,11.60
2019-01-19T06:11:12.237Z,12.67
2019-01-19T06:13:50.648Z,12.80
2019-01-19T06:16:47.062Z,11.80
2019-01-19T06:19:25.020Z,13.23
2019-01-19T06:22:01.393Z,12.83
2019-01-19T06:24:33.824Z,11.60
2019-01-19T06:27:08.972Z,12.73
2019-01-19T06:30:03.613Z,11.90
2019-01-19T06:32:33.302Z,15.57
2019-01-19T06:35:02.963Z,14.63
2019-01-19T06:37:32.473Z,15.30
2019-01-19T06:40:02.158Z,14.73
2019-01-19T06:42:31.704Z,14.13
2019-01-19T06:45:01.317Z,13.23
2019-01-19T06:47:30.831Z,13.53
2019-01-19T06:50:00.394Z,13.87
2019-01-19T06:52:29.911Z,15.03
2019-01-19T06:54:59.538Z,15.00
2019-01-19T06:57:29.102Z,15.23
2019-01-19T06:59:58.711Z,20.77
2019-01-19T07:02:28.375Z,25.07
2019-01-19T07:04:57.946Z,15.33
2019-01-19T07:07:27.442Z,14.13
2019-01-19T07:09:57.042Z,13.30
2019-01-19T07:12:26.534Z,14.53
2019-01-19T07:14:56.049Z,16.03
2019-01-19T07:17:25.628Z,24.53
2019-01-19T07:19:59.591Z,37.17
2019-01-19T07:22:28.820Z,38.27
2019-01-19T07:25:00.435Z,35.37
2019-01-19T07:27:42.503Z,29.93
2019-01-19T07:30:18.976Z,28.90
2019-01-19T07:33:05.138Z,27.83
2019-01-19T07:35:36.287Z,24.23
2019-01-19T07:38:05.859Z,22.80
2019-01-19T07:40:35.979Z,20.13
2019-01-19T07:43:38.645Z,17.33
2019-01-19T07:46:20.546Z,16.87
2019-01-19T07:48:50.418Z,16.97
2019-01-19T07:51:26.735Z,15.60
2019-01-19T07:53:59.843Z,15.33
2019-01-19T07:57:09.389Z,16.30
2019-01-19T07:59:36.127Z,13.93
2019-01-19T08:02:05.857Z,13.93
2019-01-19T08:04:35.472Z,13.97
2019-01-19T08:07:05.089Z,14.60
2019-01-19T08:09:34.762Z,17.83
2019-01-19T08:12:04.428Z,16.07
2019-01-19T08:14:34.036Z,15.33
2019-01-19T08:17:06.812Z,15.07
2019-01-19T08:19:36.576Z,15.87
2019-01-19T08:22:06.310Z,14.77
2019-01-19T08:24:35.855Z,14.77
2019-01-19T08:27:05.636Z,14.10
2019-01-19T08:29:35.204Z,13.80
2019-01-19T08:32:04.755Z,54.40
2019-01-19T08:34:34.442Z,17.40
2019-01-19T08:37:42.173Z,16.37
2019-01-19T08:40:14.214Z,15.00
2019-01-19T08:42:44.321Z,15.30
2019-01-19T08:45:13.835Z,13.70
2019-01-19T08:47:43.555Z,15.57
2019-01-19T08:50:13.314Z,16.30
2019-01-19T08:52:42.962Z,17.27
2019-01-19T08:55:12.547Z,23.47
2019-01-19T08:57:42.265Z,18.57
2019-01-19T09:00:14.813Z,16.67
2019-01-19T09:02:44.615Z,15.77
2019-01-19T09:05:31.711Z,15.70
2019-01-19T09:08:01.397Z,17.37
2019-01-19T09:10:31.092Z,17.77
2019-01-19T09:13:00.700Z,17.70
2019-01-19T09:15:30.289Z,16.90
2019-01-19T09:17:59.872Z,17.60
2019-01-19T09:20:29.489Z,20.13
2019-01-19T09:23:04.110Z,16.73
2019-01-19T09:25:33.735Z,16.27
2019-01-19T09:28:03.375Z,16.17
2019-01-19T09:30:32.974Z,15.83
2019-01-19T09:33:02.902Z,9.10
2019-01-19T09:35:32.495Z,10.80
2019-01-19T09:38:02.145Z,9.10
2019-01-19T09:40:31.699Z,10.40
2019-01-19T09:43:01.246Z,9.67
2019-01-19T09:45:32.540Z,8.53
2019-01-19T09:48:01.985Z,7.80
2019-01-19T09:50:31.388Z,8.80
2019-01-19T09:53:01.139Z,8.87
2019-01-19T09:55:30.682Z,8.57
2019-01-19T09:58:04.751Z,8.47
2019-01-19T10:00:36.672Z,8.03
2019-01-19T10:03:05.601Z,7.47
2019-01-19T10:05:35.117Z,8.53
2019-01-19T10:08:04.641Z,20.77
2019-01-19T10:10:34.356Z,11.80
2019-01-19T10:13:03.884Z,7.60
2019-01-19T10:15:33.447Z,8.03
2019-01-19T10:18:02.966Z,8.47
2019-01-19T10:20:32.605Z,19.33
2019-01-19T10:23:02.995Z,9.80
2019-01-19T10:25:32.476Z,10.30
2019-01-19T10:28:02.197Z,8.53
2019-01-19T10:30:31.804Z,9.00
2019-01-19T10:33:01.337Z,30.67
2019-01-19T10:35:30.930Z,8.60
2019-01-19T10:38:18.527Z,8.17
2019-01-19T10:40:48.107Z,6.03
2019-01-19T10:43:17.698Z,6.90
2019-01-19T10:45:47.243Z,7.20
2019-01-19T10:48:16.770Z,9.83
2019-01-19T10:50:46.284Z,8.00
2019-01-19T10:53:15.874Z,8.60
2019-01-19T10:55:45.462Z,8.03
2019-01-19T10:58:15.006Z,8.27
2019-01-19T11:00:44.560Z,7.83
2019-01-19T11:03:14.158Z,9.93
2019-01-19T11:05:43.694Z,10.63
2019-01-19T11:08:13.734Z,7.20
2019-01-19T11:10:46.691Z,7.50
2019-01-19T11:24:45.181Z,8.65
2019-01-19T11:27:17.766Z,7.53
2019-01-19T11:29:47.323Z,9.63
2019-01-19T11:32:17.013Z,8.27
2019-01-19T11:34:46.499Z,8.47
2019-01-19T11:37:16.093Z,8.03
2019-01-19T11:39:45.785Z,8.53
2019-01-19T11:42:15.432Z,8.37
2019-01-19T11:44:44.989Z,9.03
2019-01-19T11:47:14.663Z,9.33
2019-01-19T11:49:44.214Z,8.17
2019-01-19T11:52:13.844Z,7.73
2019-01-19T11:54:43.780Z,8.13
2019-01-19T11:57:13.463Z,8.00
2019-01-19T11:59:43.452Z,7.07
2019-01-19T12:02:13.111Z,7.70
2019-01-19T12:04:42.669Z,7.70
2019-01-19T12:07:12.181Z,8.53
2019-01-19T12:09:41.789Z,7.43
2019-01-19T12:12:11.290Z,8.90
2019-01-19T12:14:40.773Z,14.70
2019-01-19T12:17:10.314Z,8.97
2019-01-19T12:19:39.774Z,8.50
2019-01-19T12:22:09.234Z,9.37
2019-01-19T12:24:38.739Z,8.57
2019-01-19T12:27:08.246Z,9.20
2019-01-19T12:29:37.751Z,8.20
2019-01-19T12:32:07.294Z,7.70
2019-01-19T12:34:36.821Z,7.63
2019-01-19T12:37:06.292Z,7.73
2019-01-19T12:39:35.826Z,8.20
2019-01-19T12:42:05.807Z,9.03
2019-01-19T12:44:35.354Z,7.63
2019-01-19T12:47:05.004Z,8.67
2019-01-19T12:49:34.580Z,8.33
2019-01-19T12:52:04.219Z,8.23
2019-01-19T12:54:33.816Z,8.33
2019-01-19T12:57:03.553Z,9.73
2019-01-19T12:59:35.174Z,42.63
2019-01-19T13:02:04.884Z,10.83
2019-01-19T13:04:34.408Z,10.23
2019-01-19T13:07:14.326Z,9.27
2019-01-19T13:09:50.401Z,9.97
2019-01-19T13:12:30.314Z,10.63
2019-01-19T13:15:55.006Z,10.73
2019-01-19T13:19:27.037Z,9.77
2019-01-19T13:22:51.979Z,9.47
2019-01-19T13:25:44.503Z,9.60
2019-01-19T13:28:51.165Z,9.30
2019-01-19T13:32:02.621Z,8.63
2019-01-19T13:35:18.314Z,8.40
2019-01-19T13:38:31.955Z,9.10
2019-01-19T13:41:54.399Z,9.13
2019-01-19T13:44:48.084Z,10.97
2019-01-19T13:48:07.487Z,12.23
2019-01-19T13:51:07.171Z,9.33
2019-01-19T13:54:17.548Z,8.77
2019-01-19T13:57:34.510Z,15.20
2019-01-19T14:00:40.743Z,11.57
2019-01-19T14:03:47.154Z,11.10
2019-01-19T14:07:05.500Z,11.27
2019-01-19T14:10:05.445Z,11.07
2019-01-19T14:13:24.715Z,10.53
2019-01-19T14:16:32.642Z,10.30
2019-01-19T14:19:29.497Z,11.10
2019-01-19T14:22:46.498Z,16.77
2019-01-19T14:25:32.692Z,17.17
2019-01-19T14:28:38.949Z,14.20
2019-01-19T14:31:42.003Z,21.75
2019-01-19T14:34:51.325Z,11.90
2019-01-19T14:37:36.582Z,11.67
2019-01-19T14:40:23.949Z,13.07
2019-01-19T14:43:36.225Z,12.80
2019-01-19T14:46:31.709Z,20.80
2019-01-19T14:49:14.038Z,14.33
2019-01-19T14:52:46.028Z,15.72
2019-01-19T14:55:53.915Z,15.97
2019-01-19T14:58:49.560Z,12.30
2019-01-19T15:01:58.617Z,17.37
2019-01-19T15:04:38.330Z,16.87
2019-01-19T15:07:33.790Z,21.33
2019-01-19T15:10:38.426Z,18.80
2019-01-19T15:14:04.054Z,22.85
2019-01-19T15:17:09.101Z,14.10
2019-01-19T15:20:09.122Z,10.13
2019-01-19T15:23:16.313Z,10.93
2019-01-19T15:26:37.727Z,11.57
2019-01-19T15:30:06.223Z,12.40
2019-01-19T15:33:08.025Z,16.93
2019-01-19T15:36:33.968Z,14.80
2019-01-19T15:39:46.555Z,23.73
2019-01-19T15:42:50.580Z,17.83
2019-01-19T15:45:57.594Z,17.70
2019-01-19T15:48:49.246Z,18.40
2019-01-19T15:52:11.323Z,19.33
2019-01-19T15:55:18.302Z,21.43
2019-01-19T15:58:30.843Z,21.73
2019-01-19T16:01:09.256Z,21.80
2019-01-19T16:04:34.812Z,20.50
2019-01-19T16:07:40.462Z,22.73
2019-01-19T16:10:51.099Z,25.37
2019-01-19T16:14:01.814Z,69.60
2019-01-19T16:17:07.761Z,46.90
2019-01-19T16:20:26.831Z,26.03
2019-01-19T16:23:52.883Z,21.77
2019-01-19T16:26:40.577Z,20.43
2019-01-19T16:29:48.256Z,23.60
2019-01-19T16:32:50.961Z,30.40
2019-01-19T16:35:36.149Z,27.67
2019-01-19T16:38:45.600Z,23.87
2019-01-19T16:41:52.171Z,27.13
2019-01-19T16:44:42.527Z,31.17
2019-01-19T16:47:51.861Z,38.80
2019-01-19T16:50:43.824Z,45.73
2019-01-19T16:53:36.086Z,49.90
2019-01-19T16:56:47.452Z,48.03
2019-01-19T16:59:42.766Z,45.23
2019-01-19T17:02:53.291Z,39.50
2019-01-19T17:05:47.695Z,41.00
2019-01-19T17:09:00.627Z,42.50
2019-01-19T17:12:26.360Z,44.00
2019-01-19T17:15:35.695Z,47.50
2019-01-19T17:18:32.931Z,55.10
2019-01-19T17:21:35.684Z,63.30
2019-01-19T17:24:54.222Z,74.00
2019-01-19T17:28:06.381Z,79.77
2019-01-19T17:30:56.884Z,92.43
2019-01-19T17:34:09.899Z,102.50
2019-01-19T17:37:13.547Z,106.73
2019-01-19T17:40:06.158Z,106.37
2019-01-19T17:43:07.398Z,104.20
2019-01-19T17:46:00.797Z,102.83
2019-01-19T17:49:13.137Z,87.23
2019-01-19T17:52:31.786Z,76.33
2019-01-19T17:55:30.702Z,67.13
2019-01-19T17:58:40.533Z,67.53
2019-01-19T18:01:51.263Z,60.00
2019-01-19T18:04:42.086Z,55.90
2019-01-19T18:07:37.561Z,54.80
2019-01-19T18:10:46.829Z,51.73
2019-01-19T18:13:46.465Z,52.20
2019-01-19T18:17:02.940Z,53.13
2019-01-19T18:19:47.178Z,48.90
2019-01-19T18:22:33.118Z,50.77
2019-01-19T18:25:37.434Z,53.77
2019-01-19T18:28:54.993Z,66.57
2019-01-19T18:32:01.536Z,56.10
2019-01-19T18:34:59.290Z,49.90
2019-01-19T18:38:24.857Z,60.03
2019-01-19T18:41:34.159Z,48.23
2019-01-19T18:44:33.492Z,41.93
2019-01-19T18:47:36.233Z,39.70
2019-01-19T18:50:41.852Z,40.57
2019-01-19T18:53:36.928Z,39.70
2019-01-19T18:57:01.838Z,52.30
2019-01-19T18:59:46.163Z,45.90
2019-01-19T19:03:02.589Z,57.00
2019-01-19T19:05:49.252Z,105.73
2019-01-19T19:09:01.479Z,46.17
2019-01-19T19:12:20.766Z,56.83
2019-01-19T19:15:36.461Z,80.57
2019-01-19T19:18:28.330Z,60.47
2019-01-19T19:21:37.536Z,65.00
2019-01-19T19:24:45.795Z,62.53
2019-01-19T19:27:42.920Z,52.57
2019-01-19T19:30:44.539Z,46.23
2019-01-19T19:33:30.587Z,72.53
2019-01-19T19:36:41.674Z,85.20
2019-01-19T19:39:42.759Z,64.80
2019-01-19T19:42:46.853Z,60.77
2019-01-19T19:46:00.944Z,46.87
2019-01-19T19:49:26.780Z,41.67
2019-01-19T19:52:03.923Z,39.33
2019-01-19T19:54:34.460Z,41.70
2019-01-19T19:57:04.554Z,42.13
2019-01-19T19:59:34.060Z,41.23
2019-01-19T20:02:03.907Z,39.33
2019-01-19T20:04:33.573Z,40.77
2019-01-19T20:07:03.428Z,43.10
2019-01-19T20:09:33.097Z,49.77
2019-01-19T20:12:07.374Z,50.40
2019-01-19T20:14:39.747Z,52.63
2019-01-19T20:17:10.087Z,67.83
2019-01-19T20:19:46.033Z,65.53
2019-01-19T20:22:15.642Z,93.53
2019-01-19T20:24:45.425Z,111.60
2019-01-19T20:27:15.101Z,92.77
2019-01-19T20:29:44.796Z,74.80
2019-01-19T20:32:36.807Z,95.37
2019-01-19T20:35:07.388Z,113.00
2019-01-19T20:37:55.108Z,92.43
2019-01-19T20:40:24.836Z,59.93
2019-01-19T20:42:54.493Z,82.73
2019-01-19T20:45:24.109Z,72.30
2019-01-19T20:47:53.715Z,85.07
2019-01-19T20:50:23.470Z,85.67
2019-01-19T20:52:53.171Z,56.33
2019-01-19T20:55:22.878Z,44.80
2019-01-19T20:57:52.583Z,69.73
2019-01-19T21:00:22.675Z,67.73
2019-01-19T21:02:53.462Z,67.23
2019-01-19T21:05:23.485Z,62.17
2019-01-19T21:07:53.241Z,58.73
2019-01-19T21:10:23.130Z,63.17
2019-01-19T21:12:52.839Z,54.23
2019-01-19T21:15:22.535Z,55.10
2019-01-19T21:17:55.908Z,56.83
2019-01-19T21:20:23.614Z,53.20
2019-01-19T21:22:53.419Z,52.93
2019-01-19T21:25:23.188Z,53.23
2019-01-19T21:27:55.344Z,57.07
2019-01-19T21:30:27.900Z,109.50
2019-01-19T21:33:00.428Z,122.63
2019-01-19T21:35:32.523Z,116.57
2019-01-19T21:38:02.831Z,132.00
2019-01-19T21:40:38.766Z,66.87
2019-01-19T21:43:03.834Z,95.60
2019-01-19T21:45:33.557Z,128.27
2019-01-19T21:48:03.172Z,88.67
2019-01-19T21:50:32.744Z,89.60
2019-01-19T21:53:04.669Z,109.03
2019-01-19T21:55:34.652Z,121.10
2019-01-19T21:58:04.483Z,138.33
2019-01-19T22:00:34.117Z,96.17
2019-01-19T22:03:03.944Z,125.80
2019-01-19T22:05:33.679Z,101.80
2019-01-19T22:08:03.456Z,76.83
2019-01-19T22:10:33.228Z,60.30
2019-01-19T22:13:02.978Z,61.97
2019-01-19T22:15:32.630Z,63.93
2019-01-19T22:18:04.239Z,116.73
2019-01-19T22:20:34.397Z,110.33
2019-01-19T22:23:04.070Z,110.23
2019-01-19T22:25:34.063Z,130.83
2019-01-19T22:28:03.694Z,131.87
2019-01-19T22:30:33.400Z,75.40
2019-01-19T22:33:03.471Z,64.77
2019-01-19T22:35:33.478Z,62.73
2019-01-19T22:38:03.183Z,62.53
2019-01-19T22:40:32.922Z,67.70
2019-01-19T22:43:05.938Z,65.50
2019-01-19T22:45:35.649Z,66.17
2019-01-19T22:48:05.917Z,64.33
2019-01-19T22:50:35.596Z,65.97
2019-01-19T22:53:05.237Z,63.33
2019-01-19T22:55:34.905Z,59.03
2019-01-19T22:58:04.536Z,60.97
2019-01-19T23:01:14.934Z,61.23
2019-01-19T23:03:45.942Z,64.07
2019-01-19T23:06:15.632Z,66.77
2019-01-19T23:08:45.373Z,67.03
2019-01-19T23:11:15.135Z,69.13
2019-01-19T23:13:44.831Z,71.43
2019-01-19T23:16:14.530Z,75.93
2019-01-19T23:18:44.264Z,69.67
2019-01-19T23:21:13.907Z,70.07
2019-01-19T23:23:43.599Z,69.27
2019-01-19T23:26:13.782Z,67.60
2019-01-19T23:28:43.551Z,67.10
2019-01-19T23:31:13.261Z,64.97
2019-01-19T23:33:43.003Z,63.03
2019-01-19T23:36:12.872Z,63.23
2019-01-19T23:38:42.640Z,63.37
2019-01-19T23:41:12.295Z,62.17
2019-01-19T23:43:41.899Z,63.83
2019-01-19T23:46:11.518Z,64.60
2019-01-19T23:48:41.208Z,59.13
2019-01-19T23:51:10.915Z,59.53
2019-01-19T23:53:40.577Z,59.03
2019-01-19T23:56:10.237Z,56.60
2019-01-19T23:58:39.896Z,56.80
